createdAt,value
2023-03-05T00:01:54.948Z,99792.66
2023-03-05T00:04:25.330Z,99779.81
2023-03-05T00:06:55.741Z,99782.47
2023-03-05T00:09:25.197Z,99781.91
2023-03-05T00:11:54.747Z,99785.19
2023-03-05T00:14:24.072Z,99775.81
2023-03-05T00:16:54.328Z,99778.19
2023-03-05T00:19:24.030Z,99774.59
2023-03-05T00:21:53.223Z,99776.81
2023-03-05T00:24:22.329Z,99766.81
2023-03-05T00:26:51.412Z,99761.75
2023-03-05T00:29:22.936Z,99767.63
2023-03-05T00:31:51.716Z,99764.75
2023-03-05T00:34:22.439Z,99761.06
2023-03-05T00:36:53.922Z,99759.38
2023-03-05T00:39:23.199Z,99758.03
2023-03-05T00:41:52.433Z,99750.66
2023-03-05T00:44:21.555Z,99746.56
2023-03-05T00:46:50.482Z,99749.28
2023-03-05T00:49:19.617Z,99742.84
2023-03-05T00:51:50.212Z,99746.28
2023-03-05T00:54:19.565Z,99740.91
2023-03-05T00:56:49.277Z,99729.44
2023-03-05T00:59:18.323Z,99737.06
2023-03-05T01:01:47.102Z,99730.31
2023-03-05T01:04:16.190Z,99730.03
2023-03-05T01:06:46.334Z,99718.09
2023-03-05T01:09:17.598Z,99713.69
2023-03-05T01:11:46.647Z,99719.59
2023-03-05T01:14:15.753Z,99717.97
2023-03-05T01:16:44.473Z,99710.69
2023-03-05T01:19:14.700Z,99709.56
2023-03-05T01:21:43.562Z,99712.69
2023-03-05T01:24:12.813Z,99718.44
2023-03-05T01:26:43.267Z,99704.84
2023-03-05T01:29:12.331Z,99715.09
2023-03-05T01:31:40.963Z,99700.78
2023-03-05T01:34:10.146Z,99698.31
2023-03-05T01:36:39.207Z,99703.75
2023-03-05T01:39:08.256Z,99699.47
2023-03-05T01:41:37.354Z,99694.44
2023-03-05T01:44:08.599Z,99702.50
2023-03-05T01:46:37.659Z,99695.16
2023-03-05T01:49:12.428Z,99693.13
2023-03-05T01:51:44.994Z,99691.94
2023-03-05T01:54:16.229Z,99688.84
2023-03-05T01:56:45.769Z,99684.28
2023-03-05T01:59:16.891Z,99684.00
2023-03-05T02:01:47.480Z,99679.06
2023-03-05T02:04:19.112Z,99685.34
2023-03-05T02:06:50.114Z,99686.91
2023-03-05T02:09:23.405Z,99686.91
2023-03-05T02:11:52.777Z,99678.59
2023-03-05T02:14:24.447Z,99682.63
2023-03-05T02:16:53.452Z,99687.84
2023-03-05T02:19:22.598Z,99682.63
2023-03-05T02:21:53.132Z,99676.13
2023-03-05T02:24:36.039Z,99670.28
2023-03-05T02:27:06.589Z,99666.25
2023-03-05T02:29:36.905Z,99663.03
2023-03-05T02:32:06.705Z,99658.25
2023-03-05T02:34:35.369Z,99659.16
2023-03-05T02:37:09.195Z,99651.22
2023-03-05T02:39:39.837Z,99656.06
2023-03-05T02:42:09.335Z,99657.28
2023-03-05T02:44:38.893Z,99656.16
2023-03-05T02:47:08.428Z,99651.28
2023-03-05T02:49:37.470Z,99655.47
2023-03-05T02:52:08.727Z,99658.28
2023-03-05T02:54:37.821Z,99646.78
2023-03-05T02:57:06.876Z,99651.44
2023-03-05T02:59:35.929Z,99641.56
2023-03-05T03:02:05.058Z,99643.06
2023-03-05T03:04:33.679Z,99642.63
2023-03-05T03:07:02.687Z,99640.66
2023-03-05T03:09:35.227Z,99641.38
2023-03-05T03:12:05.116Z,99647.75
2023-03-05T03:14:39.144Z,99640.84
2023-03-05T03:17:08.349Z,99641.84
2023-03-05T03:19:37.210Z,99641.19
2023-03-05T03:22:07.116Z,99636.38
2023-03-05T03:24:39.282Z,99636.25
2023-03-05T03:27:08.468Z,99635.81
2023-03-05T03:29:37.586Z,99638.47
2023-03-05T03:32:08.434Z,99636.59
2023-03-05T03:34:37.312Z,99631.47
2023-03-05T03:37:06.530Z,99628.34
2023-03-05T03:39:35.743Z,99624.63
2023-03-05T03:42:06.782Z,99621.78
2023-03-05T03:44:36.008Z,99623.84
2023-03-05T03:47:05.389Z,99616.31
2023-03-05T03:49:34.132Z,99611.78
2023-03-05T03:52:03.331Z,99609.59
2023-03-05T03:54:33.323Z,99610.72
2023-03-05T03:57:02.359Z,99608.16
2023-03-05T03:59:32.971Z,99605.16
2023-03-05T04:02:02.072Z,99603.09
2023-03-05T04:04:30.782Z,99605.94
2023-03-05T04:07:00.785Z,99608.25
2023-03-05T04:09:29.812Z,99598.28
2023-03-05T04:11:58.856Z,99600.63
2023-03-05T04:14:28.214Z,99594.31
2023-03-05T04:16:58.307Z,99591.81
2023-03-05T04:19:28.504Z,99591.16
2023-03-05T04:21:57.156Z,99594.06
2023-03-05T04:24:26.255Z,99588.69
2023-03-05T04:26:55.693Z,99590.56
2023-03-05T04:29:26.223Z,99572.91
2023-03-05T04:31:54.929Z,99572.63
2023-03-05T04:34:25.599Z,99576.91
2023-03-05T04:36:54.633Z,99566.97
2023-03-05T04:39:23.634Z,99574.41
2023-03-05T04:41:52.779Z,99573.28
2023-03-05T04:44:23.438Z,99566.22
2023-03-05T04:46:52.215Z,99568.81
2023-03-05T04:49:21.362Z,99563.81
2023-03-05T04:51:51.940Z,99563.63
2023-03-05T04:54:20.978Z,99559.34
2023-03-05T04:56:50.051Z,99557.69
2023-03-05T04:59:19.174Z,99544.88
2023-03-05T05:01:47.938Z,99547.81
2023-03-05T05:04:17.122Z,99547.38
2023-03-05T05:06:46.260Z,99540.56
2023-03-05T05:09:16.881Z,99543.19
2023-03-05T05:11:45.910Z,99543.84
2023-03-05T05:14:15.473Z,99540.69
2023-03-05T05:16:44.199Z,99545.78
2023-03-05T05:19:13.513Z,99538.28
2023-03-05T05:21:42.669Z,99536.97
2023-03-05T05:24:11.789Z,99534.84
2023-03-05T05:26:42.542Z,99535.09
2023-03-05T05:29:11.693Z,99533.09
2023-03-05T05:31:40.424Z,99532.44
2023-03-05T05:34:09.647Z,99537.28
2023-03-05T05:36:38.714Z,99537.91
2023-03-05T05:39:07.848Z,99532.47
2023-03-05T05:41:36.954Z,99535.63
2023-03-05T05:44:07.495Z,99533.00
2023-03-05T05:46:35.967Z,99537.69
2023-03-05T05:49:05.911Z,99530.00
2023-03-05T05:51:35.099Z,99529.97
2023-03-05T05:54:04.336Z,99532.47
2023-03-05T05:56:34.922Z,99536.44
2023-03-05T05:59:04.004Z,99534.25
2023-03-05T06:01:34.572Z,99526.94
2023-03-05T06:04:03.817Z,99535.19
2023-03-05T06:06:34.169Z,99528.63
2023-03-05T06:09:03.269Z,99537.06
2023-03-05T06:11:32.397Z,99540.38
2023-03-05T06:14:02.746Z,99536.22
2023-03-05T06:16:33.410Z,99528.69
2023-03-05T06:19:04.621Z,99533.09
2023-03-05T06:21:34.082Z,99519.09
2023-03-05T06:24:03.709Z,99517.63
2023-03-05T06:26:32.794Z,99503.56
2023-03-05T06:29:01.907Z,99499.78
2023-03-05T06:31:31.163Z,99505.03
2023-03-05T06:34:02.609Z,99502.31
2023-03-05T06:36:32.193Z,99496.88
2023-03-05T06:39:01.535Z,99498.72
2023-03-05T06:41:32.584Z,99479.88
2023-03-05T06:44:02.533Z,99481.72
2023-03-05T06:46:32.430Z,99483.22
2023-03-05T06:49:03.905Z,99471.25
2023-03-05T06:51:34.789Z,99475.34
2023-03-05T06:54:05.944Z,99470.25
2023-03-05T06:56:37.138Z,99455.22
2023-03-05T06:59:06.793Z,99447.94
2023-03-05T07:01:35.597Z,99443.59
2023-03-05T07:04:06.951Z,99440.94
2023-03-05T07:06:38.814Z,99431.09
2023-03-05T07:09:09.013Z,99424.31
2023-03-05T07:11:40.284Z,99418.63
2023-03-05T07:14:09.474Z,99441.31
2023-03-05T07:16:38.095Z,99449.66
2023-03-05T07:19:11.005Z,99458.38
2023-03-05T07:21:40.441Z,99456.75
2023-03-05T07:24:10.229Z,99445.69
2023-03-05T07:26:39.446Z,99454.31
2023-03-05T07:29:08.462Z,99445.34
2023-03-05T07:31:37.406Z,99435.50
2023-03-05T07:34:08.341Z,99440.38
2023-03-05T07:36:38.244Z,99442.72
2023-03-05T07:39:07.427Z,99436.00
2023-03-05T07:41:36.886Z,99443.03
2023-03-05T07:44:05.960Z,99434.38
2023-03-05T07:46:36.143Z,99442.78
2023-03-05T07:49:05.762Z,99444.56
2023-03-05T07:51:36.486Z,99447.63
2023-03-05T07:54:05.856Z,99450.66
2023-03-05T07:56:36.461Z,99453.75
2023-03-05T07:59:07.101Z,99448.16
2023-03-05T08:01:36.390Z,99449.91
2023-03-05T08:04:07.122Z,99438.63
2023-03-05T08:06:41.252Z,99450.97
2023-03-05T08:09:11.413Z,99439.72
2023-03-05T08:11:41.466Z,99438.63
2023-03-05T08:14:12.127Z,99442.47
2023-03-05T08:16:41.315Z,99441.38
2023-03-05T08:19:12.586Z,99446.78
2023-03-05T08:21:43.249Z,99436.13
2023-03-05T08:24:13.010Z,99443.72
2023-03-05T08:26:42.481Z,99446.16
2023-03-05T08:29:12.094Z,99443.88
2023-03-05T08:31:42.104Z,99451.53
2023-03-05T08:34:11.207Z,99437.97
2023-03-05T08:36:40.296Z,99433.06
2023-03-05T08:39:11.177Z,99440.72
2023-03-05T08:41:40.685Z,99434.13
2023-03-05T08:44:09.904Z,99434.03
2023-03-05T08:46:40.453Z,99445.03
2023-03-05T08:49:09.725Z,99439.69
2023-03-05T08:51:39.533Z,99426.22
2023-03-05T08:54:08.722Z,99432.63
2023-03-05T08:56:39.346Z,99435.09
2023-03-05T08:59:10.753Z,99432.22
2023-03-05T09:01:40.163Z,99429.34
2023-03-05T09:04:09.327Z,99433.34
2023-03-05T09:06:40.595Z,99435.19
2023-03-05T09:09:10.093Z,99437.31
2023-03-05T09:11:40.480Z,99428.97
2023-03-05T09:14:09.896Z,99435.53
2023-03-05T09:16:41.062Z,99422.94
2023-03-05T09:19:12.422Z,99427.50
2023-03-05T09:21:41.608Z,99431.28
2023-03-05T09:24:11.869Z,99431.63
2023-03-05T09:26:42.431Z,99427.13
2023-03-05T09:29:13.766Z,99431.78
2023-03-05T09:31:43.482Z,99433.34
2023-03-05T09:34:13.557Z,99453.47
2023-03-05T09:36:42.650Z,99433.75
2023-03-05T09:39:11.726Z,99429.06
2023-03-05T09:41:59.270Z,99432.81
2023-03-05T09:44:34.938Z,99426.91
2023-03-05T09:47:14.769Z,99420.78
2023-03-05T09:49:45.198Z,99434.16
2023-03-05T09:52:15.431Z,99420.44
2023-03-05T09:54:47.110Z,99424.16
2023-03-05T09:57:20.202Z,99427.19
2023-03-05T09:59:52.372Z,99424.06
2023-03-05T10:02:25.086Z,99422.19
2023-03-05T10:04:57.006Z,99419.69
2023-03-05T10:07:29.124Z,99419.28
2023-03-05T10:10:00.899Z,99411.84
2023-03-05T10:12:42.357Z,99420.09
2023-03-05T10:15:15.245Z,99409.03
2023-03-05T10:17:56.446Z,99413.22
2023-03-05T10:21:00.318Z,99404.84
2023-03-05T10:23:32.222Z,99405.38
2023-03-05T10:26:23.724Z,99405.66
2023-03-05T10:29:03.874Z,99399.38
2023-03-05T10:31:41.601Z,99405.31
2023-03-05T10:34:37.902Z,99409.22
2023-03-05T10:37:18.473Z,99395.59
2023-03-05T10:39:56.636Z,99393.94
2023-03-05T10:42:31.337Z,99398.91
2023-03-05T10:45:03.522Z,99392.19
2023-03-05T10:47:39.138Z,99384.16
2023-03-05T10:50:18.163Z,99387.13
2023-03-05T10:52:51.949Z,99385.47
2023-03-05T10:55:23.727Z,99378.13
2023-03-05T10:57:52.906Z,99382.56
2023-03-05T11:00:25.183Z,99376.38
2023-03-05T11:02:59.508Z,99372.25
2023-03-05T11:05:48.283Z,99374.78
2023-03-05T11:08:36.184Z,99378.66
2023-03-05T11:11:10.523Z,99376.25
2023-03-05T11:13:44.516Z,99371.69
2023-03-05T11:16:21.159Z,99378.22
2023-03-05T11:18:50.556Z,99373.66
2023-03-05T11:21:24.044Z,99376.09
2023-03-05T11:24:07.433Z,99369.28
2023-03-05T11:26:36.650Z,99363.00
2023-03-05T11:29:11.010Z,99367.25
2023-03-05T11:31:41.205Z,99356.47
2023-03-05T11:34:26.128Z,99358.00
2023-03-05T11:37:04.550Z,99358.88
2023-03-05T11:39:36.846Z,99358.38
2023-03-05T11:42:08.018Z,99353.38
2023-03-05T11:44:48.740Z,99339.69
2023-03-05T11:47:28.429Z,99338.38
2023-03-05T11:50:03.853Z,99329.16
2023-03-05T11:52:36.468Z,99324.69
2023-03-05T11:55:07.844Z,99331.50
2023-03-05T11:57:44.172Z,99336.16
2023-03-05T12:00:18.219Z,99333.00
2023-03-05T12:02:50.698Z,99325.03
2023-03-05T12:05:19.985Z,99314.88
2023-03-05T12:07:50.963Z,99318.25
2023-03-05T12:10:22.141Z,99316.41
2023-03-05T12:12:56.579Z,99311.31
2023-03-05T12:15:49.309Z,99311.34
2023-03-05T12:18:35.462Z,99311.88
2023-03-05T12:21:08.656Z,99314.97
2023-03-05T12:23:51.880Z,99311.84
2023-03-05T12:26:59.294Z,99304.78
2023-03-05T12:29:30.478Z,99309.59
2023-03-05T12:32:01.110Z,99309.34
2023-03-05T12:34:50.623Z,99304.25
2023-03-05T12:37:56.289Z,99290.69
2023-03-05T12:40:26.519Z,99301.34
2023-03-05T12:42:56.737Z,99298.75
2023-03-05T12:45:37.249Z,99299.56
2023-03-05T12:48:45.115Z,99292.28
2023-03-05T12:51:32.888Z,99296.13
2023-03-05T12:54:31.572Z,99282.72
2023-03-05T12:57:02.295Z,99284.56
2023-03-05T12:59:40.743Z,99287.88
2023-03-05T13:02:30.555Z,99283.91
2023-03-05T13:05:00.987Z,99288.28
2023-03-05T13:07:32.074Z,99273.59
2023-03-05T13:10:01.735Z,99283.00
2023-03-05T13:12:31.819Z,99275.56
2023-03-05T13:15:03.475Z,99271.09
2023-03-05T13:17:44.540Z,99279.72
2023-03-05T13:20:37.735Z,99273.53
2023-03-05T13:23:18.366Z,99277.16
2023-03-05T13:26:04.407Z,99272.19
2023-03-05T13:28:34.590Z,99274.66
2023-03-05T13:31:03.918Z,99268.75
2023-03-05T13:33:34.729Z,99264.72
2023-03-05T13:36:04.606Z,99263.28
2023-03-05T13:38:38.388Z,99259.47
2023-03-05T13:41:21.064Z,99260.34
2023-03-05T13:43:51.903Z,99263.81
2023-03-05T13:46:29.937Z,99259.72
2023-03-05T13:49:01.023Z,99259.47
2023-03-05T13:51:43.640Z,99259.03
2023-03-05T13:54:16.811Z,99256.53
2023-03-05T13:56:54.073Z,99261.44
2023-03-05T13:59:24.402Z,99255.50
2023-03-05T14:01:54.132Z,99246.38
2023-03-05T14:04:24.378Z,99246.69
2023-03-05T14:06:57.042Z,99240.59
2023-03-05T14:09:30.360Z,99239.84
2023-03-05T14:12:04.482Z,99232.47
2023-03-05T14:14:36.791Z,99228.13
2023-03-05T14:17:34.358Z,99224.34
2023-03-05T14:20:27.568Z,99227.16
2023-03-05T14:22:58.170Z,99229.31
2023-03-05T14:25:37.812Z,99235.22
2023-03-05T14:28:09.524Z,99235.69
2023-03-05T14:30:39.089Z,99216.16
2023-03-05T14:33:08.363Z,99221.59
2023-03-05T14:35:38.314Z,99218.16
2023-03-05T14:38:09.796Z,99225.25
2023-03-05T14:40:39.963Z,99228.81
2023-03-05T14:43:12.437Z,99226.59
2023-03-05T14:45:43.636Z,99224.34
2023-03-05T14:48:15.161Z,99215.22
2023-03-05T14:50:45.411Z,99211.91
2023-03-05T14:53:15.232Z,99223.00
2023-03-05T14:55:48.896Z,99217.00
2023-03-05T14:58:21.766Z,99215.47
2023-03-05T15:00:51.462Z,99206.19
2023-03-05T15:03:21.825Z,99210.25
2023-03-05T15:05:53.016Z,99212.66
2023-03-05T15:08:23.983Z,99209.72
2023-03-05T15:10:54.486Z,99206.16
2023-03-05T15:13:24.073Z,99206.72
2023-03-05T15:15:53.697Z,99203.56
2023-03-05T15:18:24.066Z,99205.31
2023-03-05T15:20:53.690Z,99203.03
2023-03-05T15:23:22.758Z,99205.25
2023-03-05T15:25:51.656Z,99200.25
2023-03-05T15:28:22.293Z,99207.69
2023-03-05T15:30:51.882Z,99206.47
2023-03-05T15:33:22.272Z,99210.91
2023-03-05T15:35:51.638Z,99210.91
2023-03-05T15:38:21.185Z,99209.28
2023-03-05T15:40:50.412Z,99211.66
2023-03-05T15:43:19.889Z,99215.47
2023-03-05T15:45:50.505Z,99217.63
2023-03-05T15:48:19.665Z,99213.22
2023-03-05T15:50:48.765Z,99211.91
2023-03-05T15:53:18.131Z,99213.63
2023-03-05T15:55:47.229Z,99218.28
2023-03-05T15:58:17.669Z,99219.41
2023-03-05T16:00:47.653Z,99214.31
2023-03-05T16:03:18.467Z,99225.00
2023-03-05T16:05:47.719Z,99229.41
2023-03-05T16:08:16.885Z,99229.25
2023-03-05T16:10:45.675Z,99226.06
2023-03-05T16:13:19.257Z,99225.66
2023-03-05T16:15:53.238Z,99226.00
2023-03-05T16:18:25.113Z,99226.94
2023-03-05T16:20:54.694Z,99237.03
2023-03-05T16:23:23.721Z,99231.13
2023-03-05T16:25:52.602Z,99229.84
2023-03-05T16:28:21.696Z,99233.06
2023-03-05T16:30:54.806Z,99242.09
2023-03-05T16:33:26.073Z,99244.22
2023-03-05T16:36:20.823Z,99239.75
2023-03-05T16:38:50.607Z,99233.22
2023-03-05T16:41:22.536Z,99245.03
2023-03-05T16:43:56.554Z,99249.88
2023-03-05T16:46:34.619Z,99245.53
2023-03-05T16:49:05.917Z,99245.50
2023-03-05T16:51:35.229Z,99256.09
2023-03-05T16:54:05.407Z,99258.59
2023-03-05T16:56:34.595Z,99254.31
2023-03-05T16:59:04.370Z,99258.00
2023-03-05T17:01:33.359Z,99262.84
2023-03-05T17:04:03.018Z,99263.19
2023-03-05T17:06:34.980Z,99261.03
2023-03-05T17:09:05.096Z,99258.09
2023-03-05T17:11:34.453Z,99261.38
2023-03-05T17:14:04.501Z,99263.41
2023-03-05T17:16:33.601Z,99262.13
2023-03-05T17:19:02.807Z,99263.31
2023-03-05T17:21:33.426Z,99258.69
2023-03-05T17:24:02.923Z,99260.34
2023-03-05T17:26:32.845Z,99256.69
2023-03-05T17:29:01.914Z,99259.91
2023-03-05T17:31:30.831Z,99263.31
2023-03-05T17:34:00.266Z,99265.50
2023-03-05T17:36:29.431Z,99262.59
2023-03-05T17:39:00.253Z,99261.19
2023-03-05T17:41:29.441Z,99263.56
2023-03-05T17:43:58.671Z,99267.72
2023-03-05T17:46:27.722Z,99265.22
2023-03-05T17:48:57.057Z,99260.69
2023-03-05T17:51:26.161Z,99260.22
2023-03-05T17:53:56.576Z,99265.63
2023-03-05T17:56:27.185Z,99265.50
2023-03-05T17:58:56.182Z,99261.63
2023-03-05T18:01:26.787Z,99257.59
2023-03-05T18:03:56.165Z,99265.66
2023-03-05T18:06:27.089Z,99263.50
2023-03-05T18:08:56.344Z,99260.16
2023-03-05T18:11:27.602Z,99263.19
2023-03-05T18:13:56.751Z,99260.84
2023-03-05T18:16:25.989Z,99262.19
2023-03-05T18:18:55.274Z,99257.00
2023-03-05T18:21:28.152Z,99264.34
2023-03-05T18:23:57.461Z,99255.72
2023-03-05T18:26:28.326Z,99254.78
2023-03-05T18:28:57.884Z,99261.69
2023-03-05T18:31:27.151Z,99259.75
2023-03-05T18:33:56.371Z,99258.69
2023-03-05T18:36:26.538Z,99261.50
2023-03-05T18:38:55.791Z,99262.94
2023-03-05T18:41:28.384Z,99256.78
2023-03-05T18:43:57.193Z,99262.44
2023-03-05T18:46:26.541Z,99256.72
2023-03-05T18:48:55.806Z,99250.34
2023-03-05T18:51:25.043Z,99252.88
2023-03-05T18:53:55.198Z,99259.41
2023-03-05T18:56:24.006Z,99251.44
2023-03-05T18:58:54.124Z,99257.22
2023-03-05T19:01:23.381Z,99253.75
2023-03-05T19:03:52.726Z,99255.94
2023-03-05T19:06:21.880Z,99251.81
2023-03-05T19:08:57.228Z,99260.78
2023-03-05T19:11:26.922Z,99255.78
2023-03-05T19:13:59.691Z,99264.22
2023-03-05T19:16:33.912Z,99257.59
2023-03-05T19:19:13.468Z,99260.25
2023-03-05T19:21:43.054Z,99263.84
2023-03-05T19:24:12.726Z,99262.09
2023-03-05T19:26:42.072Z,99260.56
2023-03-05T19:29:13.303Z,99268.38
2023-03-05T19:31:42.468Z,99268.47
2023-03-05T19:34:11.728Z,99270.81
2023-03-05T19:36:40.967Z,99264.34
2023-03-05T19:39:10.363Z,99256.31
2023-03-05T19:41:39.589Z,99257.75
2023-03-05T19:44:08.724Z,99267.34
2023-03-05T19:46:39.889Z,99254.81
2023-03-05T19:49:09.748Z,99262.00
2023-03-05T19:51:45.683Z,99255.41
2023-03-05T19:54:17.100Z,99267.84
2023-03-05T19:56:47.951Z,99255.56
2023-03-05T19:59:21.166Z,99260.97
2023-03-05T20:01:51.552Z,99263.59
2023-03-05T20:04:23.322Z,99261.69
2023-03-05T20:06:52.849Z,99260.09
2023-03-05T20:09:22.029Z,99264.50
2023-03-05T20:11:51.924Z,99257.88
2023-03-05T20:14:21.347Z,99270.16
2023-03-05T20:16:51.811Z,99264.97
2023-03-05T20:19:22.035Z,99267.16
2023-03-05T20:21:51.134Z,99264.81
2023-03-05T20:24:20.949Z,99267.66
2023-03-05T20:26:50.227Z,99267.94
2023-03-05T20:29:19.352Z,99264.34
2023-03-05T20:31:50.099Z,99269.22
2023-03-05T20:34:21.983Z,99261.00
2023-03-05T20:36:51.261Z,99265.47
2023-03-05T20:39:20.451Z,99262.84
2023-03-05T20:41:51.317Z,99261.09
2023-03-05T20:44:20.515Z,99262.94
2023-03-05T20:46:59.732Z,99265.53
2023-03-05T20:49:30.506Z,99260.53
2023-03-05T20:52:00.206Z,99260.69
2023-03-05T20:54:29.857Z,99257.75
2023-03-05T20:56:59.662Z,99256.53
2023-03-05T20:59:28.833Z,99259.72
2023-03-05T21:01:57.757Z,99257.97
2023-03-05T21:04:26.981Z,99255.13
2023-03-05T21:06:57.940Z,99257.53
2023-03-05T21:09:29.085Z,99253.16
2023-03-05T21:11:58.223Z,99253.41
2023-03-05T21:14:27.436Z,99248.44
2023-03-05T21:16:56.278Z,99251.59
2023-03-05T21:19:25.362Z,99255.31
2023-03-05T21:21:54.736Z,99244.78
2023-03-05T21:24:32.663Z,99248.97
2023-03-05T21:27:02.061Z,99249.66
2023-03-05T21:29:31.256Z,99247.09
2023-03-05T21:32:01.019Z,99251.00
2023-03-05T21:34:30.104Z,99240.22
2023-03-05T21:36:59.201Z,99250.28
2023-03-05T21:39:29.879Z,99248.66
2023-03-05T21:41:59.694Z,99242.72
2023-03-05T21:44:28.994Z,99248.06
2023-03-05T21:46:57.992Z,99245.84
2023-03-05T21:49:27.164Z,99241.06
2023-03-05T21:52:09.125Z,99247.00
2023-03-05T21:54:40.717Z,99234.84
2023-03-05T21:57:11.700Z,99229.91
2023-03-05T21:59:42.974Z,99229.78
2023-03-05T22:02:13.652Z,99234.34
2023-03-05T22:04:43.118Z,99235.00
2023-03-05T22:07:12.326Z,99238.22
2023-03-05T22:09:43.001Z,99232.28
2023-03-05T22:12:19.424Z,99232.78
2023-03-05T22:14:48.623Z,99232.69
2023-03-05T22:17:17.663Z,99237.28
2023-03-05T22:19:48.183Z,99241.16
2023-03-05T22:22:20.785Z,99232.47
2023-03-05T22:24:56.549Z,99233.28
2023-03-05T22:27:33.353Z,99243.91
2023-03-05T22:30:04.237Z,99236.50
2023-03-05T22:32:35.197Z,99228.81
2023-03-05T22:35:06.168Z,99233.59
2023-03-05T22:37:34.900Z,99231.28
2023-03-05T22:40:06.337Z,99235.00
2023-03-05T22:42:35.477Z,99240.75
2023-03-05T22:45:04.836Z,99229.97
2023-03-05T22:47:34.132Z,99228.13
2023-03-05T22:50:03.471Z,99235.28
2023-03-05T22:52:32.205Z,99236.56
2023-03-05T22:55:03.146Z,99238.22
2023-03-05T22:57:34.566Z,99232.00
2023-03-05T23:00:06.195Z,99227.66
2023-03-05T23:02:36.413Z,99230.91
2023-03-05T23:05:07.426Z,99239.53
2023-03-05T23:07:38.028Z,99222.34
2023-03-05T23:10:09.513Z,99229.78
2023-03-05T23:12:44.086Z,99227.69
2023-03-05T23:15:15.833Z,99224.16
2023-03-05T23:17:45.008Z,99232.78
2023-03-05T23:20:16.992Z,99230.94
2023-03-05T23:22:46.454Z,99225.63
2023-03-05T23:25:16.075Z,99226.78
2023-03-05T23:27:46.871Z,99225.47
2023-03-05T23:30:19.705Z,99224.53
2023-03-05T23:32:52.100Z,99220.94
2023-03-05T23:35:23.075Z,99222.44
2023-03-05T23:37:52.623Z,99218.34
2023-03-05T23:40:23.867Z,99220.63
2023-03-05T23:42:55.506Z,99217.44
2023-03-05T23:45:25.569Z,99219.06
2023-03-05T23:47:54.371Z,99216.72
2023-03-05T23:50:25.176Z,99212.75
2023-03-05T23:52:55.357Z,99220.22
2023-03-05T23:55:26.330Z,99219.75
2023-03-05T23:57:57.076Z,99216.56
